Ext Melendez, Puerto Rico
Current Conditions -  °F | °C
As of 9:53 PM on Wednesday 17 Dec 2014 (Local Time) from TJNR Reporting Station
Scattered Clouds Scattered Clouds  
Wind Chill: 76°   Ceiling: Unl
Heat Index: 76°   Visibility: 10mi
Dew Point: 67°   Wind: 7mph
Humidity: 74%   Direction: 10°N
Pressure: 30.08"   Gusts: NA
Location:  18.3304°N, 65.6573°W
Report Text: TJNR 180153Z AUTO 01006KT 10SM FEW036 SCT045 24/19 A3008 RMK AO2 SLP184 T02440194 $
Loading
Personal Weather Stations






























Interactive Weather Map New forecast layout! Learn more

10-Day Weather Forecast

Advertisements
Track Severe Weather on mobile